Time;durP1;ratioP1;P1;durP2;ratioP2;P2;SDS_P1;SDS_P2;PMS_P1;PMS_P2;Temp;Humidity;BMP_temperature;BMP_pressure;BME280_temperature;BME280_humidity;BME280_pressure;Samples;Min_cycle;Max_cycle;Signal;HPM_P1;HPM_P2
2021/12/12 00:01:23;;;;;;;;;;;5.00;84.30;;;;;;5027311;28;19927;-83
2021/12/12 00:03:52;;;;;;;;;;;5.00;84.60;;;;;;5027755;28;19913;-82
2021/12/12 00:06:19;;;;;;;;;;;5.10;84.10;;;;;;5027214;28;20044;-83
2021/12/12 00:08:48;;;;;;;;;;;5.10;83.50;;;;;;5029962;28;19976;-83
2021/12/12 00:11:15;;;;;;;;;;;5.10;83.60;;;;;;5024779;28;19917;-83
2021/12/12 00:13:50;;;;;;;;;;;5.00;83.80;;;;;;5030830;28;19913;-83
2021/12/12 00:16:15;;;;;;;;;;;5.00;83.90;;;;;;5048216;28;19925;-83
2021/12/12 00:18:41;;;;;;;;;;;5.10;83.50;;;;;;5032226;28;20535;-83
2021/12/12 00:21:08;;;;;;;;;;;5.10;83.80;;;;;;5044453;28;20365;-83
2021/12/12 00:23:34;;;;;;;;;;;5.10;83.70;;;;;;5027477;28;19976;-83
2021/12/12 00:26:00;;;;;;;;;;;5.10;83.30;;;;;;5055873;28;19971;-83
2021/12/12 00:28:26;;;;;;;;;;;5.10;83.40;;;;;;5036272;28;19924;-83
2021/12/12 00:30:55;;;;;;;;;;;5.10;83.00;;;;;;5036777;28;19936;-82
2021/12/12 00:33:20;;;;;;;;;;;5.00;83.20;;;;;;5020646;28;20377;-83
2021/12/12 00:35:46;;;;;;;;;;;5.10;83.30;;;;;;5035130;28;19910;-83
2021/12/12 00:38:14;;;;;;;;;;;5.00;83.20;;;;;;5032037;28;19909;-82
2021/12/12 00:40:43;;;;;;;;;;;5.10;83.10;;;;;;5038554;28;19971;-83
2021/12/12 00:43:20;;;;;;;;;;;5.10;82.90;;;;;;5030150;28;19992;-83
2021/12/12 00:45:45;;;;;;;;;;;5.00;83.30;;;;;;5035533;28;19924;-83
2021/12/12 00:48:11;;;;;;;;;;;5.00;83.50;;;;;;5033326;28;20360;-83
2021/12/12 00:50:38;;;;;;;;;;;5.10;82.80;;;;;;5054452;28;19966;-83
2021/12/12 00:53:05;;;;;;;;;;;5.00;83.10;;;;;;5054280;28;19921;-83
2021/12/12 00:55:30;;;;;;;;;;;5.00;82.80;;;;;;5045748;28;19916;-83
2021/12/12 00:57:56;;;;;;;;;;;4.90;83.30;;;;;;5031157;28;19935;-83
2021/12/12 01:00:23;;;;;;;;;;;4.80;83.60;;;;;;5022770;28;20566;-84
2021/12/12 01:02:49;;;;;;;;;;;4.80;83.50;;;;;;5039608;28;19923;-83
2021/12/12 01:05:14;;;;;;;;;;;4.90;83.30;;;;;;5029654;28;19952;-81
2021/12/12 01:07:41;;;;;;;;;;;4.80;83.30;;;;;;5039584;28;19967;-82
2021/12/12 01:10:09;;;;;;;;;;;4.70;83.90;;;;;;5044049;28;19917;-83
2021/12/12 01:12:35;;;;;;;;;;;4.80;83.80;;;;;;5035232;28;19940;-82
2021/12/12 01:15:13;;;;;;;;;;;4.80;83.60;;;;;;5021766;28;20362;-83
2021/12/12 01:17:42;;;;;;;;;;;4.80;83.80;;;;;;5033556;28;19919;-83
2021/12/12 01:20:38;;;;;;;;;;;4.80;83.70;;;;;;5022859;28;20298;-83
2021/12/12 01:23:15;;;;;;;;;;;4.90;83.40;;;;;;5018009;28;20312;-82
2021/12/12 01:25:44;;;;;;;;;;;4.90;83.90;;;;;;5034863;28;19913;-82
2021/12/12 01:28:11;;;;;;;;;;;5.00;83.60;;;;;;5027943;28;19913;-82
2021/12/12 01:30:36;;;;;;;;;;;5.00;83.50;;;;;;5030469;28;19917;-82
2021/12/12 01:33:02;;;;;;;;;;;5.10;82.70;;;;;;5033080;28;19913;-82
2021/12/12 01:35:27;;;;;;;;;;;5.10;83.00;;;;;;5052516;28;19989;-82
2021/12/12 01:40:43;;;;;;;;;;;5.00;82.90;;;;;;5052559;28;19923;-82
2021/12/12 01:43:21;;;;;;;;;;;5.00;82.60;;;;;;5051760;28;19917;-81
2021/12/12 01:45:49;;;;;;;;;;;4.90;83.00;;;;;;5022133;28;19924;-81
2021/12/12 01:48:19;;;;;;;;;;;4.90;83.70;;;;;;5025195;28;19944;-80
2021/12/12 01:50:52;;;;;;;;;;;5.00;82.90;;;;;;5042395;28;19913;-81
2021/12/12 01:53:19;;;;;;;;;;;4.90;82.70;;;;;;5035435;28;19912;-82
2021/12/12 01:55:50;;;;;;;;;;;5.20;82.10;;;;;;5024078;28;19932;-81
2021/12/12 01:58:18;;;;;;;;;;;5.10;82.30;;;;;;5025134;28;19928;-80
2021/12/12 02:00:46;;;;;;;;;;;5.10;82.30;;;;;;5022472;28;20020;-82
2021/12/12 02:03:13;;;;;;;;;;;5.00;82.20;;;;;;5032374;28;19912;-81
2021/12/12 02:05:39;;;;;;;;;;;5.10;82.10;;;;;;5051482;28;19936;-81
2021/12/12 02:08:06;;;;;;;;;;;5.00;82.30;;;;;;5035207;28;20012;-80
2021/12/12 02:10:34;;;;;;;;;;;5.10;81.90;;;;;;5049230;28;19912;-82
2021/12/12 02:13:02;;;;;;;;;;;5.10;81.90;;;;;;5052876;28;19987;-82
2021/12/12 02:15:30;;;;;;;;;;;5.00;81.80;;;;;;5050998;28;20383;-82
2021/12/12 02:17:55;;;;;;;;;;;5.00;82.20;;;;;;5052166;28;19913;-82
2021/12/12 02:20:33;;;;;;;;;;;5.10;81.60;;;;;;5049627;28;19917;-83
2021/12/12 02:23:07;;;;;;;;;;;5.10;81.80;;;;;;5053941;28;19917;-83
2021/12/12 02:36:56;;;;;;;;;;;5.20;80.60;;;;;;5050636;28;19955;-82
2021/12/12 02:39:22;;;;;;;;;;;5.10;81.00;;;;;;5035437;28;19912;-82
2021/12/12 02:41:49;;;;;;;;;;;5.00;81.50;;;;;;5057746;28;19943;-82
2021/12/12 02:44:15;;;;;;;;;;;5.00;81.50;;;;;;5056867;28;19967;-82
2021/12/12 02:46:43;;;;;;;;;;;5.00;81.70;;;;;;5039133;28;19917;-82
2021/12/12 02:49:24;;;;;;;;;;;5.10;81.20;;;;;;5056238;28;20029;-82
2021/12/12 02:51:52;;;;;;;;;;;5.00;81.20;;;;;;5034050;28;20381;-83
2021/12/12 02:54:17;;;;;;;;;;;5.10;80.80;;;;;;5034214;28;20285;-83
2021/12/12 02:56:45;;;;;;;;;;;5.00;80.90;;;;;;5039111;28;20024;-83
2021/12/12 02:59:12;;;;;;;;;;;4.90;81.40;;;;;;5035115;28;19992;-82
2021/12/12 03:01:40;;;;;;;;;;;5.00;81.40;;;;;;5056492;28;19916;-83
2021/12/12 03:04:05;;;;;;;;;;;5.00;81.50;;;;;;5056976;28;19913;-82
2021/12/12 03:06:32;;;;;;;;;;;4.90;81.50;;;;;;5056172;28;19913;-83
2021/12/12 03:09:06;;;;;;;;;;;5.00;81.80;;;;;;5021970;28;19920;-83
2021/12/12 03:11:32;;;;;;;;;;;4.90;82.00;;;;;;5037505;28;19916;-83
2021/12/12 03:13:58;;;;;;;;;;;5.00;81.70;;;;;;5058196;28;20550;-83
2021/12/12 03:16:24;;;;;;;;;;;5.00;81.70;;;;;;5035849;28;20010;-82
2021/12/12 03:18:49;;;;;;;;;;;4.90;81.70;;;;;;5045004;28;19968;-83
2021/12/12 03:21:32;;;;;;;;;;;5.00;81.50;;;;;;5076961;28;19905;-82
2021/12/12 03:24:04;;;;;;;;;;;5.10;81.20;;;;;;5067118;28;19897;-83
2021/12/12 03:26:30;;;;;;;;;;;5.10;81.00;;;;;;5045949;28;19958;-81
2021/12/12 03:28:56;;;;;;;;;;;5.10;81.40;;;;;;5045686;28;20328;-83
2021/12/12 03:31:24;;;;;;;;;;;5.10;81.30;;;;;;5055831;28;19923;-83
2021/12/12 03:33:50;;;;;;;;;;;5.10;81.30;;;;;;5055599;28;20007;-81
2021/12/12 03:36:16;;;;;;;;;;;5.10;81.60;;;;;;5057948;28;19939;-81
2021/12/12 03:38:46;;;;;;;;;;;5.20;80.90;;;;;;5038931;28;20178;-81
2021/12/12 03:41:14;;;;;;;;;;;5.30;80.70;;;;;;5058688;28;19952;-81
2021/12/12 03:43:41;;;;;;;;;;;5.30;80.60;;;;;;5063806;28;19931;-80
2021/12/12 03:46:10;;;;;;;;;;;5.30;80.80;;;;;;5065469;28;19927;-81
2021/12/12 03:48:36;;;;;;;;;;;5.30;81.30;;;;;;5043456;28;20250;-82
2021/12/12 03:51:03;;;;;;;;;;;5.40;81.00;;;;;;5040748;28;19913;-82
2021/12/12 03:53:30;;;;;;;;;;;5.30;80.90;;;;;;5062637;28;20286;-82
2021/12/12 03:55:57;;;;;;;;;;;5.50;80.80;;;;;;5052588;28;19945;-81
2021/12/12 03:58:23;;;;;;;;;;;5.40;80.90;;;;;;5031813;28;20293;-82
2021/12/12 04:00:54;;;;;;;;;;;5.30;80.90;;;;;;5055461;28;19924;-82
2021/12/12 04:03:20;;;;;;;;;;;5.30;81.10;;;;;;5064917;28;19913;-82
2021/12/12 04:05:51;;;;;;;;;;;5.50;80.90;;;;;;5060751;28;19913;-83
2021/12/12 04:08:16;;;;;;;;;;;5.50;80.80;;;;;;5030473;28;19913;-82
2021/12/12 04:10:42;;;;;;;;;;;5.50;81.10;;;;;;5031080;28;19919;-82
2021/12/12 04:13:08;;;;;;;;;;;5.50;80.90;;;;;;5065236;28;19998;-82
2021/12/12 04:15:33;;;;;;;;;;;5.40;81.40;;;;;;5066979;28;19913;-81
2021/12/12 04:17:59;;;;;;;;;;;5.50;81.50;;;;;;5067498;28;19913;-81
2021/12/12 04:20:30;;;;;;;;;;;5.40;81.70;;;;;;5034380;28;20012;-81
2021/12/12 04:22:56;;;;;;;;;;;5.40;81.90;;;;;;5063352;28;19967;-82
2021/12/12 04:25:22;;;;;;;;;;;5.50;81.80;;;;;;5044055;28;19924;-83
2021/12/12 04:27:47;;;;;;;;;;;5.30;82.20;;;;;;5056181;28;19913;-83
2021/12/12 04:30:14;;;;;;;;;;;5.50;82.10;;;;;;5062214;28;19968;-83
2021/12/12 04:32:40;;;;;;;;;;;5.40;82.40;;;;;;5045646;28;19917;-81
2021/12/12 04:35:08;;;;;;;;;;;5.40;83.00;;;;;;5065387;28;20005;-82
2021/12/12 04:37:34;;;;;;;;;;;5.50;82.60;;;;;;5063841;28;19924;-81
2021/12/12 04:39:59;;;;;;;;;;;5.40;83.20;;;;;;5065193;28;19917;-82
2021/12/12 04:42:30;;;;;;;;;;;5.40;83.10;;;;;;5067557;28;19913;-82
2021/12/12 04:45:09;;;;;;;;;;;5.40;83.30;;;;;;5048716;28;20361;-82
2021/12/12 04:50:25;;;;;;;;;;;5.50;83.20;;;;;;5057518;28;19932;-82
2021/12/12 04:52:58;;;;;;;;;;;5.50;83.50;;;;;;5058182;28;19924;-83
2021/12/12 04:55:27;;;;;;;;;;;5.50;83.00;;;;;;5053948;28;19917;-82
2021/12/12 04:58:09;;;;;;;;;;;5.30;83.80;;;;;;5061351;28;19909;-82
2021/12/12 05:00:40;;;;;;;;;;;5.40;84.20;;;;;;5041399;28;20350;-82
2021/12/12 05:03:13;;;;;;;;;;;5.40;83.90;;;;;;5039164;28;20326;-83
2021/12/12 05:05:59;;;;;;;;;;;5.40;83.70;;;;;;5043109;28;19980;-82
2021/12/12 05:08:33;;;;;;;;;;;5.40;83.70;;;;;;5039886;28;20623;-82
2021/12/12 05:11:00;;;;;;;;;;;5.40;83.70;;;;;;5064274;28;19955;-82
2021/12/12 05:13:35;;;;;;;;;;;5.40;83.90;;;;;;5047691;28;19913;-81
2021/12/12 05:16:12;;;;;;;;;;;5.40;83.90;;;;;;5049099;28;19919;-82
2021/12/12 05:18:48;;;;;;;;;;;5.60;83.50;;;;;;5064846;28;19917;-81
2021/12/12 05:21:13;;;;;;;;;;;5.50;83.00;;;;;;5048778;28;19932;-82
2021/12/12 05:23:43;;;;;;;;;;;5.40;83.70;;;;;;5049076;28;20020;-82
2021/12/12 05:26:34;;;;;;;;;;;5.50;83.50;;;;;;5069382;28;19917;-82
2021/12/12 05:29:14;;;;;;;;;;;5.50;83.60;;;;;;5055221;28;19916;-82
2021/12/12 05:31:40;;;;;;;;;;;5.40;83.50;;;;;;5034460;28;19978;-82
2021/12/12 05:34:07;;;;;;;;;;;5.40;83.90;;;;;;5062625;28;19920;-82
2021/12/12 05:36:33;;;;;;;;;;;5.40;83.90;;;;;;5064517;28;19924;-82
2021/12/12 05:38:59;;;;;;;;;;;5.50;84.00;;;;;;5038761;28;20373;-82
2021/12/12 05:41:25;;;;;;;;;;;5.40;84.70;;;;;;5056426;28;19920;-81
2021/12/12 05:43:53;;;;;;;;;;;5.30;85.30;;;;;;5052528;28;19912;-82
2021/12/12 05:46:19;;;;;;;;;;;5.50;84.80;;;;;;5056144;28;19931;-83
2021/12/12 05:48:46;;;;;;;;;;;5.30;85.60;;;;;;5060743;28;19973;-83
2021/12/12 05:51:11;;;;;;;;;;;5.30;86.20;;;;;;5030176;28;20036;-82
2021/12/12 05:53:37;;;;;;;;;;;5.10;86.70;;;;;;5058110;28;19940;-83
2021/12/12 05:56:03;;;;;;;;;;;5.20;87.10;;;;;;5040987;28;19913;-83
2021/12/12 05:58:29;;;;;;;;;;;5.20;87.30;;;;;;5039369;28;19924;-83
2021/12/12 06:01:13;;;;;;;;;;;5.20;87.10;;;;;;5029283;28;19923;-82
2021/12/12 06:03:40;;;;;;;;;;;5.20;87.40;;;;;;5049012;28;20606;-82
2021/12/12 06:06:07;;;;;;;;;;;5.20;87.60;;;;;;5059901;28;19913;-82
2021/12/12 06:08:33;;;;;;;;;;;5.30;87.60;;;;;;5057772;28;20003;-83
2021/12/12 06:10:59;;;;;;;;;;;5.40;87.40;;;;;;5042252;28;19931;-82
2021/12/12 06:13:24;;;;;;;;;;;5.40;87.30;;;;;;5029525;28;20270;-82
2021/12/12 06:15:53;;;;;;;;;;;5.30;87.10;;;;;;5057576;28;19924;-82
2021/12/12 06:18:19;;;;;;;;;;;5.30;87.90;;;;;;5062271;28;19913;-83
2021/12/12 06:20:45;;;;;;;;;;;5.10;88.30;;;;;;5043846;28;20034;-82
2021/12/12 06:23:12;;;;;;;;;;;5.10;88.70;;;;;;5042373;28;19921;-83
2021/12/12 06:25:38;;;;;;;;;;;5.20;88.60;;;;;;5037889;28;20125;-83
2021/12/12 06:28:10;;;;;;;;;;;5.10;88.60;;;;;;5047878;28;19967;-82
2021/12/12 06:30:36;;;;;;;;;;;5.10;88.80;;;;;;5066051;28;19913;-82
2021/12/12 06:33:02;;;;;;;;;;;5.20;89.00;;;;;;5061920;28;20371;-82
2021/12/12 06:35:28;;;;;;;;;;;5.20;88.80;;;;;;5028086;28;19917;-82
2021/12/12 06:37:53;;;;;;;;;;;5.30;88.70;;;;;;5047267;28;19927;-82
2021/12/12 06:40:20;;;;;;;;;;;5.10;88.80;;;;;;5057559;28;19913;-83
2021/12/12 06:42:47;;;;;;;;;;;5.20;89.10;;;;;;5042109;28;19924;-82
2021/12/12 06:45:13;;;;;;;;;;;5.30;89.00;;;;;;5040970;28;19979;-82
2021/12/12 06:47:39;;;;;;;;;;;5.30;88.80;;;;;;5064287;28;19913;-84
2021/12/12 06:50:05;;;;;;;;;;;5.30;88.80;;;;;;5040176;28;19913;-82
2021/12/12 06:52:31;;;;;;;;;;;5.30;88.90;;;;;;5065727;28;19909;-83
2021/12/12 06:54:57;;;;;;;;;;;5.20;89.40;;;;;;5062209;28;20367;-82
2021/12/12 06:57:22;;;;;;;;;;;5.30;89.50;;;;;;5041515;28;19936;-83
2021/12/12 06:59:49;;;;;;;;;;;5.30;89.80;;;;;;5043370;28;20008;-82
2021/12/12 07:02:14;;;;;;;;;;;5.30;90.00;;;;;;5053267;28;20465;-82
2021/12/12 07:04:41;;;;;;;;;;;5.40;89.50;;;;;;5050002;28;19951;-82
2021/12/12 07:07:08;;;;;;;;;;;5.40;89.90;;;;;;5054807;28;19913;-81
2021/12/12 07:09:35;;;;;;;;;;;5.40;90.00;;;;;;5028474;28;19943;-82
2021/12/12 07:12:04;;;;;;;;;;;5.30;90.10;;;;;;5022897;28;19964;-82
2021/12/12 07:14:31;;;;;;;;;;;5.40;90.00;;;;;;5058262;28;19913;-82
2021/12/12 07:16:56;;;;;;;;;;;5.40;90.10;;;;;;5057373;28;20404;-81
2021/12/12 07:19:22;;;;;;;;;;;5.40;90.10;;;;;;5039728;28;20000;-82
2021/12/12 07:21:48;;;;;;;;;;;5.40;90.40;;;;;;5039421;28;20000;-81
2021/12/12 07:24:14;;;;;;;;;;;5.50;90.40;;;;;;5056220;28;19952;-82
2021/12/12 07:26:40;;;;;;;;;;;5.40;90.50;;;;;;5054672;28;19924;-82
2021/12/12 07:29:05;;;;;;;;;;;5.40;90.40;;;;;;5040356;28;19909;-82
2021/12/12 07:31:33;;;;;;;;;;;5.40;90.60;;;;;;5055914;28;19920;-82
2021/12/12 07:34:00;;;;;;;;;;;5.50;90.60;;;;;;5029916;28;19917;-82
2021/12/12 07:36:27;;;;;;;;;;;5.50;90.50;;;;;;5029070;28;19975;-82
2021/12/12 07:38:56;;;;;;;;;;;5.50;90.30;;;;;;5049078;28;19975;-83
2021/12/12 07:41:23;;;;;;;;;;;5.50;90.30;;;;;;5055499;28;19924;-82
2021/12/12 07:43:49;;;;;;;;;;;5.50;90.60;;;;;;5038144;28;20042;-82
2021/12/12 07:46:14;;;;;;;;;;;5.60;90.60;;;;;;5055851;28;19917;-82
2021/12/12 07:48:42;;;;;;;;;;;5.70;90.60;;;;;;5056274;28;19955;-82
2021/12/12 07:51:09;;;;;;;;;;;5.70;90.30;;;;;;5056639;28;19916;-81
2021/12/12 07:53:35;;;;;;;;;;;5.60;90.10;;;;;;5022418;28;19914;-82
2021/12/12 07:56:00;;;;;;;;;;;5.80;90.10;;;;;;5053323;28;19920;-82
2021/12/12 07:58:26;;;;;;;;;;;5.80;90.00;;;;;;5055723;28;19948;-80
2021/12/12 08:00:52;;;;;;;;;;;5.80;90.00;;;;;;5034069;28;19961;-80
2021/12/12 08:03:26;;;;;;;;;;;5.80;90.00;;;;;;5034099;28;19939;-80
2021/12/12 08:05:52;;;;;;;;;;;5.80;90.20;;;;;;5056086;28;19912;-80
2021/12/12 08:08:17;;;;;;;;;;;5.90;89.90;;;;;;5044387;28;20270;-80
2021/12/12 08:10:44;;;;;;;;;;;5.90;89.90;;;;;;5021007;28;19921;-84
2021/12/12 08:13:11;;;;;;;;;;;5.90;90.10;;;;;;5036425;28;19912;-82
2021/12/12 08:15:36;;;;;;;;;;;5.90;89.90;;;;;;5037250;28;19913;-80
2021/12/12 08:18:03;;;;;;;;;;;5.90;89.70;;;;;;5055466;28;19913;-80
2021/12/12 08:20:30;;;;;;;;;;;5.90;89.90;;;;;;5029994;28;19920;-80
2021/12/12 08:22:57;;;;;;;;;;;5.90;90.00;;;;;;5040571;28;20296;-81
2021/12/12 08:25:24;;;;;;;;;;;6.00;89.90;;;;;;5033846;28;19924;-80
2021/12/12 08:27:49;;;;;;;;;;;6.00;89.80;;;;;;5030244;28;19912;-80
2021/12/12 08:30:17;;;;;;;;;;;6.00;89.70;;;;;;5039833;28;20464;-81
2021/12/12 08:32:45;;;;;;;;;;;6.00;89.70;;;;;;5051413;28;19952;-81
2021/12/12 08:35:11;;;;;;;;;;;6.00;89.80;;;;;;5035696;28;19916;-82
2021/12/12 08:37:37;;;;;;;;;;;6.00;89.80;;;;;;5053221;28;20296;-81
2021/12/12 08:40:04;;;;;;;;;;;6.20;89.50;;;;;;5055529;28;19916;-81
2021/12/12 08:42:29;;;;;;;;;;;6.10;89.50;;;;;;5054157;28;19919;-81
2021/12/12 08:44:55;;;;;;;;;;;6.10;89.70;;;;;;5052840;28;19917;-81
2021/12/12 08:47:22;;;;;;;;;;;6.10;89.80;;;;;;5027527;28;19917;-85
2021/12/12 08:49:47;;;;;;;;;;;6.00;89.80;;;;;;5041325;28;20019;-84
2021/12/12 08:52:15;;;;;;;;;;;6.10;90.00;;;;;;5035432;28;20388;-83
2021/12/12 08:54:42;;;;;;;;;;;6.10;90.00;;;;;;5040905;28;19931;-84
2021/12/12 08:57:13;;;;;;;;;;;6.10;90.20;;;;;;5054594;28;19976;-84
2021/12/12 08:59:40;;;;;;;;;;;6.10;90.30;;;;;;5056293;28;19920;-84
2021/12/12 09:02:11;;;;;;;;;;;6.20;90.10;;;;;;5056904;28;19915;-84
2021/12/12 09:04:45;;;;;;;;;;;6.30;89.90;;;;;;5038848;28;19975;-83
2021/12/12 09:07:16;;;;;;;;;;;6.30;90.10;;;;;;5056516;28;19995;-85
2021/12/12 09:10:01;;;;;;;;;;;6.30;89.90;;;;;;5037797;28;19981;-84
2021/12/12 09:12:30;;;;;;;;;;;6.40;90.00;;;;;;5055707;28;19916;-85
2021/12/12 09:15:03;;;;;;;;;;;6.30;90.10;;;;;;5045963;28;19913;-85
2021/12/12 09:17:30;;;;;;;;;;;6.30;90.30;;;;;;5024570;28;20027;-84
2021/12/12 09:20:00;;;;;;;;;;;6.30;90.50;;;;;;5037899;28;19913;-84
2021/12/12 09:22:32;;;;;;;;;;;6.30;90.50;;;;;;5050448;28;19984;-84
2021/12/12 09:25:19;;;;;;;;;;;6.30;90.60;;;;;;5038626;28;19959;-84
2021/12/12 09:27:48;;;;;;;;;;;6.30;90.80;;;;;;5053437;28;20299;-84
2021/12/12 09:30:17;;;;;;;;;;;6.40;90.90;;;;;;5030352;28;19913;-83
2021/12/12 09:32:45;;;;;;;;;;;6.40;90.90;;;;;;5048717;28;19935;-83
2021/12/12 09:35:14;;;;;;;;;;;6.40;91.00;;;;;;5054677;28;19908;-84
2021/12/12 09:37:45;;;;;;;;;;;6.40;90.90;;;;;;5041804;28;19939;-83
2021/12/12 09:40:15;;;;;;;;;;;6.50;90.90;;;;;;5067168;28;19987;-84
2021/12/12 09:42:48;;;;;;;;;;;6.50;90.90;;;;;;5053890;28;19901;-82
2021/12/12 09:45:31;;;;;;;;;;;6.50;91.20;;;;;;5063649;28;19950;-84
2021/12/12 09:51:14;;;;;;;;;;;6.50;91.20;;;;;;5039872;28;19912;-83
2021/12/12 09:51:27;;;;;;;;;;;6.60;91.20;;;;;;5057573;28;19913;-85
2021/12/12 09:53:52;;;;;;;;;;;6.70;91.10;;;;;;5027541;28;19912;-85
2021/12/12 09:56:39;;;;;;;;;;;6.60;91.20;;;;;;5034910;28;19913;-86
2021/12/12 09:59:08;;;;;;;;;;;6.60;91.10;;;;;;5035085;28;19909;-84
2021/12/12 10:01:46;;;;;;;;;;;6.60;91.20;;;;;;5052575;28;20339;-83
2021/12/12 10:04:21;;;;;;;;;;;6.70;91.10;;;;;;5049098;28;21438;-82
2021/12/12 10:06:59;;;;;;;;;;;6.80;91.30;;;;;;5047612;28;19913;-83
2021/12/12 10:09:56;;;;;;;;;;;6.80;91.20;;;;;;5053287;28;19932;-82
2021/12/12 10:12:24;;;;;;;;;;;6.80;91.30;;;;;;4992835;28;19917;-83
2021/12/12 10:14:53;;;;;;;;;;;6.90;91.30;;;;;;5037000;28;19916;-83
2021/12/12 10:17:19;;;;;;;;;;;6.80;91.10;;;;;;5028250;28;19920;-82
2021/12/12 10:19:50;;;;;;;;;;;6.90;91.20;;;;;;5052820;28;19913;-82
2021/12/12 10:22:19;;;;;;;;;;;6.90;91.30;;;;;;5034514;28;19913;-82
2021/12/12 10:24:50;;;;;;;;;;;6.90;91.40;;;;;;5055135;28;19926;-81
2021/12/12 10:27:24;;;;;;;;;;;7.00;91.40;;;;;;5055716;28;19931;-82
2021/12/12 10:30:10;;;;;;;;;;;6.90;91.50;;;;;;5037578;28;19949;-80
2021/12/12 10:32:56;;;;;;;;;;;6.90;91.90;;;;;;5039259;28;19952;-82
2021/12/12 10:35:27;;;;;;;;;;;6.90;91.80;;;;;;5025023;28;20639;-80
2021/12/12 10:37:55;;;;;;;;;;;7.10;92.20;;;;;;5046939;28;19913;-81
2021/12/12 10:40:25;;;;;;;;;;;7.10;91.90;;;;;;5055249;28;19994;-81
2021/12/12 10:42:53;;;;;;;;;;;7.10;91.80;;;;;;5041035;28;19913;-82
2021/12/12 10:45:25;;;;;;;;;;;7.20;91.90;;;;;;5044496;28;19920;-80
2021/12/12 10:47:59;;;;;;;;;;;7.10;91.80;;;;;;5057181;28;19935;-79
2021/12/12 10:50:37;;;;;;;;;;;7.10;92.00;;;;;;5037206;28;19939;-82
2021/12/12 10:53:18;;;;;;;;;;;7.20;92.00;;;;;;5043481;28;20281;-81
2021/12/12 10:55:53;;;;;;;;;;;7.10;92.00;;;;;;5059041;28;19917;-80
2021/12/12 10:58:33;;;;;;;;;;;7.20;92.20;;;;;;5057691;28;19913;-80
2021/12/12 11:01:08;;;;;;;;;;;7.20;92.20;;;;;;5038370;28;20297;-83
2021/12/12 11:03:38;;;;;;;;;;;7.30;92.10;;;;;;5055589;28;20446;-81
2021/12/12 11:06:06;;;;;;;;;;;7.30;92.10;;;;;;5041319;28;19917;-80
2021/12/12 11:08:35;;;;;;;;;;;7.60;92.30;;;;;;5022234;28;20289;-79
2021/12/12 11:11:02;;;;;;;;;;;7.50;91.90;;;;;;5044345;28;20038;-81
2021/12/12 11:13:32;;;;;;;;;;;7.50;91.80;;;;;;5039314;28;19912;-81
2021/12/12 11:16:02;;;;;;;;;;;7.60;91.90;;;;;;5057582;28;19923;-80
2021/12/12 11:18:34;;;;;;;;;;;7.60;91.80;;;;;;5046808;28;19912;-81
2021/12/12 11:21:03;;;;;;;;;;;7.60;91.60;;;;;;5052365;28;19932;-82
2021/12/12 11:23:32;;;;;;;;;;;7.50;91.60;;;;;;5053542;28;20487;-81
2021/12/12 11:26:10;;;;;;;;;;;7.60;91.60;;;;;;5033680;28;20015;-81
2021/12/12 11:28:46;;;;;;;;;;;7.60;91.70;;;;;;5053406;28;19923;-81
2021/12/12 11:31:13;;;;;;;;;;;7.60;91.50;;;;;;5039720;28;19913;-80
2021/12/12 11:33:42;;;;;;;;;;;7.60;91.60;;;;;;5052727;28;19909;-83
2021/12/12 11:36:12;;;;;;;;;;;7.80;91.50;;;;;;5026240;28;20361;-79
2021/12/12 11:39:03;;;;;;;;;;;7.80;91.10;;;;;;5031566;28;19921;-80
2021/12/12 11:41:58;;;;;;;;;;;7.80;91.20;;;;;;5051966;28;19924;-80
2021/12/12 11:44:23;;;;;;;;;;;7.80;91.30;;;;;;5013540;28;19921;-81
2021/12/12 11:47:08;;;;;;;;;;;7.90;91.20;;;;;;5030900;28;19931;-82
2021/12/12 11:49:56;;;;;;;;;;;7.80;91.30;;;;;;5045981;28;20573;-85
2021/12/12 11:52:44;;;;;;;;;;;7.80;91.10;;;;;;5029001;28;20468;-81
2021/12/12 11:55:19;;;;;;;;;;;7.90;91.20;;;;;;5027756;28;19913;-82
2021/12/12 11:58:14;;;;;;;;;;;7.90;90.90;;;;;;5045185;28;19947;-80
2021/12/12 12:00:42;;;;;;;;;;;7.90;91.00;;;;;;5035474;28;19916;-81
2021/12/12 12:03:27;;;;;;;;;;;8.00;90.90;;;;;;5055927;28;19912;-80
2021/12/12 12:06:02;;;;;;;;;;;7.90;91.00;;;;;;5040814;28;19913;-79
2021/12/12 12:08:35;;;;;;;;;;;7.90;90.90;;;;;;5045643;28;19934;-80
2021/12/12 12:11:26;;;;;;;;;;;7.90;90.90;;;;;;5050985;28;19920;-80
2021/12/12 12:13:57;;;;;;;;;;;8.00;91.00;;;;;;5038416;28;19952;-80
2021/12/12 12:16:29;;;;;;;;;;;8.00;91.00;;;;;;5027181;28;20119;-82
2021/12/12 12:19:00;;;;;;;;;;;8.10;91.00;;;;;;5043002;28;19913;-80
2021/12/12 12:21:32;;;;;;;;;;;8.00;90.90;;;;;;5040248;28;20246;-81
2021/12/12 12:24:19;;;;;;;;;;;8.00;91.00;;;;;;5048850;28;19912;-81
2021/12/12 12:26:51;;;;;;;;;;;8.00;90.80;;;;;;5049538;28;19922;-81
2021/12/12 12:29:32;;;;;;;;;;;8.00;90.80;;;;;;5027376;28;20283;-81
2021/12/12 12:32:06;;;;;;;;;;;8.10;91.00;;;;;;5042810;28;20281;-80
2021/12/12 12:34:50;;;;;;;;;;;8.00;91.20;;;;;;5047379;28;19913;-79
2021/12/12 12:37:36;;;;;;;;;;;8.00;91.30;;;;;;5028014;28;19960;-80
2021/12/12 12:40:20;;;;;;;;;;;8.10;91.10;;;;;;5051636;28;19944;-81
2021/12/12 12:43:04;;;;;;;;;;;8.10;91.20;;;;;;5057394;28;20392;-81
2021/12/12 12:46:07;;;;;;;;;;;8.10;91.40;;;;;;5038710;28;19925;-82
2021/12/12 12:48:45;;;;;;;;;;;8.10;91.30;;;;;;5034910;28;19920;-81
2021/12/12 12:51:27;;;;;;;;;;;8.20;91.20;;;;;;5038093;28;19920;-80
2021/12/12 12:54:11;;;;;;;;;;;8.10;91.20;;;;;;5044827;28;19912;-82
2021/12/12 12:56:55;;;;;;;;;;;8.20;91.20;;;;;;5040217;28;19913;-80
2021/12/12 12:59:36;;;;;;;;;;;8.20;90.90;;;;;;5048491;28;19912;-82
2021/12/12 13:02:12;;;;;;;;;;;8.20;90.60;;;;;;5047630;28;20031;-83
2021/12/12 13:05:00;;;;;;;;;;;8.20;90.90;;;;;;5045684;28;19909;-82
2021/12/12 13:07:40;;;;;;;;;;;8.10;91.00;;;;;;5049748;28;20061;-81
2021/12/12 13:10:20;;;;;;;;;;;8.30;91.10;;;;;;5031689;28;19913;-82
2021/12/12 13:12:58;;;;;;;;;;;8.30;91.00;;;;;;5049727;28;20246;-83
2021/12/12 13:15:26;;;;;;;;;;;8.20;91.00;;;;;;5046111;28;19917;-82
2021/12/12 13:18:06;;;;;;;;;;;8.30;91.10;;;;;;5043878;28;19973;-81
2021/12/12 13:20:35;;;;;;;;;;;8.30;91.10;;;;;;5054193;28;20031;-81
2021/12/12 13:23:16;;;;;;;;;;;8.30;90.90;;;;;;5052374;28;19931;-82
2021/12/12 13:25:45;;;;;;;;;;;8.30;91.40;;;;;;5032668;28;19916;-82
2021/12/12 13:28:27;;;;;;;;;;;8.30;91.10;;;;;;5025831;28;19947;-83
2021/12/12 13:31:02;;;;;;;;;;;8.40;91.00;;;;;;5028776;28;19913;-84
2021/12/12 13:33:39;;;;;;;;;;;8.40;91.10;;;;;;5043937;28;20341;-83
2021/12/12 13:36:04;;;;;;;;;;;8.30;91.20;;;;;;5027241;28;19924;-84
2021/12/12 13:38:42;;;;;;;;;;;8.40;91.20;;;;;;5046606;28;19932;-85
2021/12/12 13:41:19;;;;;;;;;;;8.40;91.10;;;;;;5033037;28;19917;-85
2021/12/12 13:43:54;;;;;;;;;;;8.50;91.20;;;;;;5045677;28;19972;-83
2021/12/12 13:46:39;;;;;;;;;;;8.60;91.10;;;;;;5057561;28;19924;-85
2021/12/12 13:49:12;;;;;;;;;;;8.50;91.10;;;;;;5045812;28;19917;-84
2021/12/12 13:51:40;;;;;;;;;;;8.60;90.90;;;;;;5034693;28;19913;-84
2021/12/12 13:54:21;;;;;;;;;;;8.60;90.80;;;;;;5040289;28;19920;-84
2021/12/12 13:57:07;;;;;;;;;;;8.70;91.00;;;;;;5061038;28;19913;-83
2021/12/12 13:59:33;;;;;;;;;;;8.70;91.00;;;;;;5028702;28;19917;-89
2021/12/12 14:02:06;;;;;;;;;;;8.70;90.80;;;;;;5045487;28;19917;-83
2021/12/12 14:04:50;;;;;;;;;;;8.70;90.80;;;;;;5048112;28;20373;-83
2021/12/12 14:07:17;;;;;;;;;;;8.80;90.90;;;;;;5041626;28;19924;-85
2021/12/12 14:09:47;;;;;;;;;;;8.90;90.70;;;;;;5040926;28;19919;-84
2021/12/12 14:12:14;;;;;;;;;;;9.00;90.50;;;;;;5043960;28;19920;-83
2021/12/12 14:14:52;;;;;;;;;;;9.00;90.30;;;;;;5066503;28;20020;-84
2021/12/12 14:17:33;;;;;;;;;;;9.00;90.50;;;;;;5049298;28;19925;-84
2021/12/12 14:20:07;;;;;;;;;;;8.90;90.60;;;;;;5068117;23;19925;-89
2021/12/12 14:22:32;;;;;;;;;;;9.00;90.80;;;;;;5058853;28;19916;-86
2021/12/12 14:25:00;;;;;;;;;;;9.00;90.70;;;;;;5058996;28;19912;-87
2021/12/12 14:27:27;;;;;;;;;;;9.10;90.30;;;;;;5075212;28;19912;-86
2021/12/12 14:29:52;;;;;;;;;;;9.10;90.40;;;;;;5061449;28;19912;-87
2021/12/12 14:32:27;;;;;;;;;;;9.00;90.50;;;;;;5067429;28;19979;-88
2021/12/12 14:34:52;;;;;;;;;;;9.10;90.50;;;;;;5045025;28;20355;-86
2021/12/12 14:37:22;;;;;;;;;;;9.10;90.20;;;;;;5061148;28;19920;-87
2021/12/12 14:39:49;;;;;;;;;;;9.00;90.30;;;;;;5066751;28;19999;-88
2021/12/12 14:42:26;;;;;;;;;;;9.00;90.60;;;;;;5060983;28;19923;-88
2021/12/12 14:45:18;;;;;;;;;;;9.10;90.50;;;;;;5062180;28;19919;-87
2021/12/12 14:47:46;;;;;;;;;;;9.10;90.40;;;;;;5055008;28;20087;-85
2021/12/12 14:50:32;;;;;;;;;;;9.10;90.50;;;;;;5062030;28;19960;-87
2021/12/12 14:53:04;;;;;;;;;;;9.00;90.30;;;;;;5054545;28;19913;-86
2021/12/12 14:55:39;;;;;;;;;;;9.10;90.20;;;;;;5059860;28;19936;-87
2021/12/12 14:58:07;;;;;;;;;;;9.00;90.00;;;;;;5061640;28;20000;-88
2021/12/12 15:00:37;;;;;;;;;;;8.90;90.40;;;;;;5049198;28;19924;-85
2021/12/12 15:03:06;;;;;;;;;;;8.90;90.60;;;;;;5055258;28;19920;-88
2021/12/12 15:05:31;;;;;;;;;;;9.10;90.60;;;;;;5049001;28;20390;-88
2021/12/12 15:08:04;;;;;;;;;;;9.00;90.40;;;;;;5038978;28;19952;-87
2021/12/12 15:10:38;;;;;;;;;;;9.10;90.50;;;;;;5046017;28;19924;-86